Time;durP1;ratioP1;P1;durP2;ratioP2;P2;SDS_P1;SDS_P2;PMS_P1;PMS_P2;Temp;Humidity;BMP_temperature;BMP_pressure;BME280_temperature;BME280_humidity;BME280_pressure;Samples;Min_cycle;Max_cycle;Signal;HPM_P1;HPM_P2
2021/05/26 00:01:47;;;;;;;4.22;2.63;;;;;;;21.33;51.38;100867.94;5069978;28;20045;-67
2021/05/26 00:04:14;;;;;;;5.10;3.08;;;;;;;21.36;51.31;100864.31;5069376;28;20071;-67
2021/05/26 00:06:41;;;;;;;8.27;3.20;;;;;;;21.41;51.51;100865.94;5068971;28;20544;-67
2021/05/26 00:09:10;;;;;;;8.68;2.97;;;;;;;21.44;51.37;100862.31;5069618;28;20082;-66
2021/05/26 00:11:37;;;;;;;5.15;3.33;;;;;;;21.33;51.62;100862.56;5068172;28;20037;-67
2021/05/26 00:14:04;;;;;;;6.88;3.30;;;;;;;21.33;51.56;100851.81;5069327;28;20155;-67
2021/05/26 00:16:31;;;;;;;7.00;2.58;;;;;;;21.38;51.61;100855.28;5069682;28;20040;-66
2021/05/26 00:18:58;;;;;;;6.65;2.95;;;;;;;21.36;51.63;100849.06;5069032;28;20127;-67
2021/05/26 00:21:26;;;;;;;7.07;3.25;;;;;;;21.32;51.93;100857.25;5069851;28;20124;-67
2021/05/26 00:23:53;;;;;;;8.27;3.33;;;;;;;21.27;51.78;100852.00;5069648;28;20518;-67
2021/05/26 00:26:21;;;;;;;5.65;2.92;;;;;;;21.30;51.77;100856.41;5069616;28;20055;-67
2021/05/26 00:28:48;;;;;;;7.72;3.00;;;;;;;21.35;51.57;100844.63;5069852;28;20052;-67
2021/05/26 00:31:20;;;;;;;5.47;3.08;;;;;;;21.23;51.90;100849.44;5068332;28;20120;-67
2021/05/26 00:33:47;;;;;;;6.20;2.58;;;;;;;21.16;52.47;100845.16;5069551;28;20035;-66
2021/05/26 00:36:14;;;;;;;7.40;3.05;;;;;;;21.23;52.06;100852.13;5069705;28;20060;-66
2021/05/26 00:38:41;;;;;;;4.10;3.05;;;;;;;21.26;51.89;100839.53;5069191;28;20037;-67
2021/05/26 00:41:09;;;;;;;7.70;3.00;;;;;;;21.23;51.83;100842.28;5069051;28;20119;-67
2021/05/26 00:43:37;;;;;;;5.95;2.78;;;;;;;21.14;52.10;100844.28;5068420;28;20500;-66
2021/05/26 00:46:05;;;;;;;3.80;2.40;;;;;;;21.05;52.03;100840.94;5068104;28;20514;-66
2021/05/26 00:48:31;;;;;;;5.20;2.95;;;;;;;21.02;51.88;100845.47;5068856;28;20501;-67
2021/05/26 00:50:59;;;;;;;6.95;3.00;;;;;;;20.93;52.31;100843.94;5069360;28;20037;-67
2021/05/26 00:53:28;;;;;;;7.13;3.13;;;;;;;20.91;52.18;100835.03;5069104;28;20040;-67
2021/05/26 00:55:55;;;;;;;6.65;2.90;;;;;;;21.03;51.79;100840.09;5068752;28;20063;-67
2021/05/26 00:58:24;;;;;;;3.67;2.70;;;;;;;21.00;51.92;100842.81;5069187;28;20150;-66
2021/05/26 01:00:52;;;;;;;5.93;3.13;;;;;;;20.80;52.42;100836.22;5068149;28;20044;-67
2021/05/26 01:03:19;;;;;;;6.85;2.75;;;;;;;20.81;52.22;100840.66;5069287;28;20049;-67
2021/05/26 01:06:07;;;;;;;5.85;3.00;;;;;;;20.90;51.80;100830.59;5068220;28;20059;-67
2021/05/26 01:08:34;;;;;;;5.40;3.00;;;;;;;20.99;51.71;100826.78;5068563;28;20040;-67
2021/05/26 01:11:03;;;;;;;7.18;3.00;;;;;;;21.04;51.47;100822.16;5067732;28;20052;-67
2021/05/26 01:13:31;;;;;;;9.48;3.75;;;;;;;20.99;51.50;100824.09;5069361;28;20044;-67
2021/05/26 01:16:00;;;;;;;8.10;3.40;;;;;;;20.97;51.97;100821.44;5068286;28;20455;-67
2021/05/26 01:18:29;;;;;;;7.78;3.22;;;;;;;20.88;52.07;100821.69;5068235;28;20033;-67
2021/05/26 01:20:58;;;;;;;6.03;3.13;;;;;;;20.85;51.84;100819.09;5063314;28;20561;-66
2021/05/26 01:23:26;;;;;;;7.50;3.50;;;;;;;20.45;53.17;100821.00;5068984;28;20036;-67
2021/05/26 01:25:56;;;;;;;5.40;3.00;;;;;;;20.48;53.08;100821.78;5068157;28;20044;-66
2021/05/26 01:28:26;;;;;;;6.50;3.25;;;;;;;20.64;52.80;100822.31;5068444;28;20048;-67
2021/05/26 01:30:54;;;;;;;6.65;3.05;;;;;;;20.59;52.99;100826.91;5067483;28;20047;-66
2021/05/26 01:33:21;;;;;;;8.85;3.20;;;;;;;20.64;52.53;100816.94;5069178;28;20124;-67
2021/05/26 01:35:49;;;;;;;7.22;3.25;;;;;;;20.69;52.47;100817.69;5068421;28;20041;-67
2021/05/26 01:38:17;;;;;;;5.70;3.08;;;;;;;20.68;52.27;100813.25;5049673;28;20051;-67
2021/05/26 01:40:46;;;;;;;6.43;2.63;;;;;;;20.69;52.25;100823.94;5068245;28;20564;-66
2021/05/26 01:43:13;;;;;;;7.38;3.05;;;;;;;20.65;52.10;100824.06;5067432;28;20075;-66
2021/05/26 01:45:41;;;;;;;6.93;2.65;;;;;;;20.59;51.78;100817.06;5063471;28;20086;-66
2021/05/26 01:48:09;;;;;;;5.63;3.35;;;;;;;20.53;51.73;100819.91;5068645;28;20047;-66
2021/05/26 01:50:36;;;;;;;6.78;2.80;;;;;;;20.51;51.76;100820.84;5067435;28;20048;-66
2021/05/26 01:53:07;;;;;;;5.90;2.28;;;;;;;20.59;51.27;100817.06;5068600;28;20044;-67
2021/05/26 01:55:34;;;;;;;10.77;4.10;;;;;;;20.61;51.14;100820.56;5068471;28;20079;-66
2021/05/26 01:58:03;;;;;;;6.93;3.17;;;;;;;20.60;51.22;100820.63;5068595;28;20611;-67
2021/05/26 02:00:31;;;;;;;5.88;2.90;;;;;;;20.77;51.21;100836.28;5068657;28;20044;-67
2021/05/26 02:02:58;;;;;;;6.00;3.08;;;;;;;20.49;51.82;100839.66;5069068;28;20052;-67
2021/05/26 02:05:25;;;;;;;7.32;3.20;;;;;;;20.42;52.00;100831.78;5067753;28;20044;-67
2021/05/26 02:07:53;;;;;;;5.78;2.72;;;;;;;20.29;52.23;100836.50;5068388;28;20079;-66
2021/05/26 02:12:20;;;;;;;6.40;3.00;;;;;;;20.37;51.99;100834.56;5068581;28;20049;-67
2021/05/26 02:13:09;;;;;;;8.50;3.30;;;;;;;20.32;52.09;100839.13;5068390;28;20048;-67
2021/05/26 02:15:36;;;;;;;7.55;2.90;;;;;;;20.31;52.18;100832.00;5068423;28;20033;-67
2021/05/26 02:18:04;;;;;;;6.45;3.10;;;;;;;20.40;52.06;100831.84;5067811;28;20036;-66
2021/05/26 02:20:31;;;;;;;8.13;2.95;;;;;;;20.23;52.10;100828.63;5068780;28;20512;-67
2021/05/26 02:22:58;;;;;;;5.93;2.80;;;;;;;20.29;51.98;100837.41;5068717;28;20148;-67
2021/05/26 02:25:25;;;;;;;6.10;2.90;;;;;;;20.25;52.14;100834.84;5068191;28;20047;-67
2021/05/26 02:27:52;;;;;;;5.60;3.13;;;;;;;20.28;51.97;100840.13;5066747;28;20046;-67
2021/05/26 02:30:21;;;;;;;6.10;3.00;;;;;;;20.15;52.15;100838.66;5070398;28;20469;-67
2021/05/26 02:32:48;;;;;;;5.45;3.17;;;;;;;20.14;52.38;100836.88;5071293;28;20049;-67
2021/05/26 02:35:15;;;;;;;6.68;2.97;;;;;;;20.22;52.22;100834.88;5071725;28;20199;-67
2021/05/26 02:37:42;;;;;;;5.70;3.30;;;;;;;20.30;52.08;100835.59;5071861;28;20047;-66
2021/05/26 02:40:11;;;;;;;8.13;3.33;;;;;;;20.21;51.99;100833.16;5071495;28;20119;-67
2021/05/26 02:42:38;;;;;;;8.68;2.92;;;;;;;20.18;52.10;100830.53;5070498;28;20147;-66
2021/05/26 02:45:06;;;;;;;9.15;3.30;;;;;;;20.12;52.38;100838.72;5071259;28;20040;-67
2021/05/26 02:47:35;;;;;;;6.45;2.60;;;;;;;20.18;52.42;100825.16;5071087;28;20539;-66
2021/05/26 02:50:02;;;;;;;8.90;3.10;;;;;;;20.15;52.44;100833.28;5072051;28;20536;-66
2021/05/26 02:52:29;;;;;;;8.88;3.38;;;;;;;19.98;52.76;100825.63;5071628;28;20146;-67
2021/05/26 02:54:56;;;;;;;6.25;2.65;;;;;;;20.21;52.56;100830.47;5071694;28;20561;-67
2021/05/26 02:57:24;;;;;;;8.00;3.08;;;;;;;20.28;52.27;100832.09;5070087;28;20174;-67
2021/05/26 02:59:51;;;;;;;4.97;2.70;;;;;;;20.33;52.15;100826.66;5070743;28;20124;-66
2021/05/26 03:02:18;;;;;;;8.27;3.25;;;;;;;20.38;52.01;100819.38;5071115;28;20032;-67
2021/05/26 03:04:46;;;;;;;8.48;3.33;;;;;;;20.38;52.28;100825.63;5071678;28;20037;-67
2021/05/26 03:07:13;;;;;;;8.18;3.53;;;;;;;20.34;52.33;100823.06;5070847;28;20145;-66
2021/05/26 03:09:40;;;;;;;4.82;2.88;;;;;;;20.28;52.35;100818.69;5069802;28;20510;-67
2021/05/26 03:12:08;;;;;;;10.07;3.42;;;;;;;20.44;52.06;100820.09;5071542;28;20051;-67
2021/05/26 03:14:35;;;;;;;7.10;3.20;;;;;;;20.56;51.89;100819.81;5069151;28;20400;-66
2021/05/26 03:17:02;;;;;;;7.93;3.20;;;;;;;20.58;51.81;100814.41;5071243;28;20135;-67
2021/05/26 03:19:29;;;;;;;6.93;2.80;;;;;;;20.64;51.68;100815.13;5071783;28;20675;-67
2021/05/26 03:21:58;;;;;;;5.90;2.50;;;;;;;20.73;51.52;100806.00;5070821;28;20064;-67
2021/05/26 03:24:25;;;;;;;7.60;2.60;;;;;;;20.82;51.37;100818.28;5070934;28;20032;-67
2021/05/26 03:26:52;;;;;;;4.28;2.65;;;;;;;20.75;51.46;100806.81;5070437;28;20123;-67
2021/05/26 03:29:19;;;;;;;8.05;2.47;;;;;;;20.79;51.58;100810.31;5070452;28;20619;-66
2021/05/26 03:31:47;;;;;;;5.85;2.45;;;;;;;20.94;51.50;100809.91;5070792;28;20112;-66
2021/05/26 03:34:14;;;;;;;6.93;2.83;;;;;;;21.13;50.94;100805.84;5070869;28;20161;-67
2021/05/26 03:36:42;;;;;;;6.13;2.75;;;;;;;21.28;50.84;100805.41;5069681;28;20028;-67
2021/05/26 03:39:11;;;;;;;9.18;3.03;;;;;;;21.38;50.94;100812.31;5069195;28;20139;-66
2021/05/26 03:41:39;;;;;;;6.53;2.28;;;;;;;21.50;50.78;100807.50;5068731;28;20090;-67
2021/05/26 03:44:07;;;;;;;8.20;2.65;;;;;;;21.68;50.33;100806.97;5070866;28;20041;-66
2021/05/26 03:46:35;;;;;;;10.80;2.97;;;;;;;21.93;49.74;100808.00;5070544;28;20032;-66
2021/05/26 03:49:02;;;;;;;6.35;2.85;;;;;;;22.04;50.21;100822.06;5069327;28;20068;-66
2021/05/26 03:51:29;;;;;;;9.70;3.00;;;;;;;22.16;50.35;100816.28;5069940;28;20043;-66
2021/05/26 03:53:56;;;;;;;7.95;3.25;;;;;;;22.32;50.40;100816.66;5070639;28;20045;-67
2021/05/26 03:56:24;;;;;;;7.30;2.90;;;;;;;22.50;50.22;100817.91;5069915;28;20141;-67
2021/05/26 03:58:51;;;;;;;9.07;3.42;;;;;;;22.65;50.38;100810.19;5069730;28;20048;-67
2021/05/26 04:01:18;;;;;;;5.15;2.30;;;;;;;22.82;49.69;100814.19;5068617;28;20046;-67
2021/05/26 04:03:45;;;;;;;11.20;3.17;;;;;;;23.10;49.26;100812.31;5070152;28;20048;-66
2021/05/26 04:06:12;;;;;;;6.43;2.75;;;;;;;23.36;49.47;100814.06;5069267;28;20787;-67
2021/05/26 04:08:39;;;;;;;9.75;3.67;;;;;;;23.56;49.35;100816.94;5070409;28;20064;-66
2021/05/26 04:11:06;;;;;;;8.02;3.40;;;;;;;23.67;48.54;100814.72;5069687;28;20037;-67
2021/05/26 04:13:35;;;;;;;7.05;2.47;;;;;;;23.76;47.57;100816.19;5070407;28;20041;-66
2021/05/26 04:16:02;;;;;;;8.02;2.50;;;;;;;24.20;46.67;100819.91;5069808;28;20048;-66
2021/05/26 04:18:29;;;;;;;4.88;3.03;;;;;;;24.46;46.75;100819.72;5070075;28;20563;-67
2021/05/26 04:20:56;;;;;;;7.25;3.60;;;;;;;24.56;46.35;100822.91;5069771;28;20123;-66
2021/05/26 04:23:23;;;;;;;8.20;3.22;;;;;;;24.89;45.01;100826.94;5069802;28;20072;-67
2021/05/26 04:25:51;;;;;;;7.38;3.00;;;;;;;25.10;44.59;100833.25;5068860;28;20068;-66
2021/05/26 04:28:19;;;;;;;6.18;2.80;;;;;;;25.33;43.57;100830.44;5069653;28;20052;-67
2021/05/26 04:30:48;;;;;;;12.48;4.60;;;;;;;25.56;42.70;100832.09;5069452;28;20036;-67
2021/05/26 04:33:16;;;;;;;5.72;2.22;;;;;;;25.79;41.85;100834.69;5069729;28;20131;-66
2021/05/26 04:35:44;;;;;;;11.90;2.88;;;;;;;26.19;41.34;100849.03;5069562;28;20060;-66
2021/05/26 04:38:12;;;;;;;7.28;2.13;;;;;;;26.49;41.00;100850.31;5069383;28;20532;-67
2021/05/26 04:40:39;;;;;;;7.43;2.03;;;;;;;26.76;40.39;100845.34;5069346;28;20045;-67
2021/05/26 04:43:07;;;;;;;7.68;2.10;;;;;;;27.05;40.18;100849.31;5069430;28;20041;-67
2021/05/26 04:45:34;;;;;;;7.68;2.10;;;;;;;27.33;39.94;100844.22;5068452;28;20487;-67
2021/05/26 04:48:02;;;;;;;7.38;2.55;;;;;;;27.52;39.37;100846.00;5069394;28;20143;-67
2021/05/26 04:50:30;;;;;;;6.75;1.95;;;;;;;27.81;38.97;100847.16;5069647;28;20446;-67
2021/05/26 04:52:57;;;;;;;8.32;2.35;;;;;;;28.18;38.32;100846.91;5069148;28;20050;-67
2021/05/26 04:55:24;;;;;;;8.02;2.78;;;;;;;28.49;37.02;100846.91;5069381;28;20492;-66
2021/05/26 04:57:58;;;;;;;6.80;2.00;;;;;;;28.78;35.62;100845.25;5068441;28;20052;-67
2021/05/26 05:00:26;;;;;;;;;;;;;;;28.96;35.95;100848.72;5065042;28;20123;-67
2021/05/26 05:02:53;;;;;;;5.72;1.83;;;;;;;29.35;35.52;100850.06;5067740;28;20295;-67
2021/05/26 05:05:23;;;;;;;10.02;2.00;;;;;;;29.66;34.59;100848.09;5061923;28;20052;-68
2021/05/26 05:07:50;;;;;;;7.13;1.88;;;;;;;30.00;33.71;100849.56;5063732;28;20029;-67
2021/05/26 05:10:17;;;;;;;4.45;1.73;;;;;;;30.34;33.02;100844.66;5061636;28;20037;-67
2021/05/26 05:12:44;;;;;;;8.85;1.65;;;;;;;30.68;32.19;100849.69;5065305;28;20111;-67
2021/05/26 05:15:12;;;;;;;6.95;2.75;;;;;;;30.86;32.09;100845.72;5063921;28;20131;-67
2021/05/26 05:17:39;;;;;;;5.03;1.73;;;;;;;31.07;31.71;100843.44;5068465;28;20086;-67
2021/05/26 05:20:07;;;;;;;6.63;2.25;;;;;;;31.30;31.00;100851.91;5066989;28;20128;-67
2021/05/26 05:22:35;;;;;;;5.40;1.67;;;;;;;31.53;30.71;100846.56;5059857;28;20465;-67
2021/05/26 05:25:02;;;;;;;5.88;1.40;;;;;;;31.67;30.32;100851.97;5056798;28;20063;-67
2021/05/26 05:27:29;;;;;;;6.65;1.90;;;;;;;31.87;29.48;100858.75;5055770;28;20051;-67
2021/05/26 05:29:56;;;;;;;3.95;1.90;;;;;;;32.10;29.80;100848.03;5061469;28;20047;-67
2021/05/26 05:32:24;;;;;;;6.50;2.13;;;;;;;32.27;29.08;100842.22;5061121;28;20045;-68
2021/05/26 05:34:51;;;;;;;7.20;1.98;;;;;;;32.45;28.39;100854.53;5054443;28;20033;-67
2021/05/26 05:37:18;;;;;;;4.90;1.70;;;;;;;32.78;28.30;100853.88;5063114;28;20147;-67
2021/05/26 05:39:46;;;;;;;5.88;1.70;;;;;;;33.11;27.54;100856.78;5068546;28;20037;-67
2021/05/26 05:42:13;;;;;;;6.65;1.73;;;;;;;33.13;27.28;100860.28;5067555;28;20124;-67
2021/05/26 05:44:40;;;;;;;8.93;2.75;;;;;;;33.15;26.54;100858.28;5065813;28;20120;-68
2021/05/26 05:47:07;;;;;;;5.50;1.70;;;;;;;33.40;26.44;100859.19;5061852;28;20522;-68
2021/05/26 05:49:34;;;;;;;4.32;1.42;;;;;;;33.57;26.11;100856.84;5059893;28;20163;-67
2021/05/26 05:52:01;;;;;;;2.83;1.17;;;;;;;33.72;26.19;100865.75;5058724;28;20594;-67
2021/05/26 05:54:28;;;;;;;5.97;1.58;;;;;;;33.89;25.92;100859.78;5049256;28;20033;-67
2021/05/26 05:56:56;;;;;;;4.25;1.52;;;;;;;34.07;25.82;100854.69;5048730;28;20132;-67
2021/05/26 05:59:23;;;;;;;4.28;1.30;;;;;;;34.12;25.53;100859.81;5060050;28;20037;-67
2021/05/26 06:01:50;;;;;;;4.78;1.40;;;;;;;34.05;25.12;100856.69;5058861;28;20035;-67
2021/05/26 06:04:18;;;;;;;5.00;1.65;;;;;;;34.09;25.10;100852.69;5067820;28;20045;-67
2021/05/26 06:06:45;;;;;;;9.10;1.60;;;;;;;34.24;25.21;100856.09;5072560;28;20032;-67
2021/05/26 06:09:12;;;;;;;7.75;1.98;;;;;;;34.42;24.89;100871.03;5071659;28;20032;-67
2021/05/26 06:11:39;;;;;;;6.13;1.30;;;;;;;34.54;24.67;100870.00;5072289;28;20032;-67
2021/05/26 06:14:08;;;;;;;5.32;1.60;;;;;;;34.55;24.52;100879.13;5071750;28;20556;-67
2021/05/26 06:16:35;;;;;;;6.95;1.85;;;;;;;34.67;24.54;100872.59;5061993;28;20124;-67
2021/05/26 06:19:03;;;;;;;4.97;1.30;;;;;;;34.83;24.32;100872.25;5067430;28;20119;-68
2021/05/26 06:21:31;;;;;;;4.38;1.35;;;;;;;35.00;24.45;100866.19;5071757;28;20043;-68
2021/05/26 06:23:58;;;;;;;8.52;1.88;;;;;;;35.08;24.50;100875.50;5070849;28;20526;-68
2021/05/26 06:26:25;;;;;;;4.05;1.42;;;;;;;35.19;23.89;100872.72;5071576;28;20046;-67
2021/05/26 06:28:52;;;;;;;5.88;1.60;;;;;;;35.01;24.00;100870.69;5061056;28;20040;-67
2021/05/26 06:31:20;;;;;;;6.38;1.65;;;;;;;34.99;23.87;100861.69;5070849;28;20630;-67
2021/05/26 06:33:47;;;;;;;7.22;1.38;;;;;;;35.02;23.91;100865.06;5063981;28;20036;-68
2021/05/26 06:36:15;;;;;;;2.30;1.25;;;;;;;35.08;23.55;100859.03;5068873;28;20064;-67
2021/05/26 06:38:41;;;;;;;8.82;1.98;;;;;;;35.06;23.31;100863.78;5057457;28;20044;-67
2021/05/26 06:41:10;;;;;;;7.72;1.75;;;;;;;35.23;23.64;100862.38;5071823;28;20127;-67
2021/05/26 06:43:37;;;;;;;5.88;1.52;;;;;;;35.40;23.65;100864.53;5058778;28;20061;-67
2021/05/26 06:46:04;;;;;;;7.60;1.58;;;;;;;35.40;23.60;100880.16;5063052;28;20094;-67
2021/05/26 06:48:33;;;;;;;8.27;1.98;;;;;;;35.45;23.65;100878.75;5054882;28;20465;-67
2021/05/26 06:51:00;;;;;;;12.20;1.73;;;;;;;35.50;23.38;100873.75;5064342;28;20044;-68
2021/05/26 06:53:29;;;;;;;7.70;1.60;;;;;;;35.51;23.19;100867.22;5059154;28;20615;-67
2021/05/26 06:55:56;;;;;;;6.05;1.55;;;;;;;35.29;23.41;100872.84;5062452;28;20525;-68
2021/05/26 06:58:23;;;;;;;7.85;1.42;;;;;;;35.09;23.69;100876.38;5070346;28;22740;-67
2021/05/26 07:00:50;;;;;;;5.72;1.98;;;;;;;35.07;24.07;100879.25;5070153;28;20119;-67
2021/05/26 07:03:17;;;;;;;14.30;1.77;;;;;;;35.25;24.01;100886.97;5067253;28;20067;-68
2021/05/26 07:05:45;;;;;;;4.07;1.50;;;;;;;35.39;23.94;100884.75;5070033;28;20028;-67
2021/05/26 07:08:12;;;;;;;7.63;1.80;;;;;;;35.49;23.77;100885.72;5069885;28;20043;-67
2021/05/26 07:10:39;;;;;;;6.63;1.92;;;;;;;35.47;23.55;100892.34;5070591;28;20078;-67
2021/05/26 07:13:07;;;;;;;3.50;1.50;;;;;;;35.35;23.46;100891.53;5070555;28;20044;-67
2021/05/26 07:15:34;;;;;;;6.07;2.10;;;;;;;35.36;23.77;100882.31;5070645;28;20467;-67
2021/05/26 07:18:05;;;;;;;5.95;1.88;;;;;;;35.40;23.82;100896.63;5070226;28;20041;-68
2021/05/26 07:20:32;;;;;;;2.92;1.40;;;;;;;35.36;23.96;100897.91;5070873;28;20044;-67
2021/05/26 07:23:01;;;;;;;4.70;1.60;;;;;;;35.33;24.00;100890.78;5071035;28;20115;-67
2021/05/26 07:25:28;;;;;;;5.78;1.50;;;;;;;35.41;24.13;100885.50;5070681;28;20090;-67
2021/05/26 07:27:55;;;;;;;4.53;1.60;;;;;;;35.53;24.02;100889.06;5070531;28;20131;-67
2021/05/26 07:30:23;;;;;;;4.15;1.58;;;;;;;35.33;23.76;100882.53;5071178;28;20036;-68
2021/05/26 07:32:50;;;;;;;6.13;1.60;;;;;;;35.37;24.26;100892.28;5071195;28;20120;-67
2021/05/26 07:35:17;;;;;;;6.75;1.42;;;;;;;35.51;23.84;100889.19;5070669;28;20102;-67
2021/05/26 07:37:44;;;;;;;6.70;1.85;;;;;;;35.53;23.44;100878.06;5071244;28;20119;-67
2021/05/26 07:40:14;;;;;;;2.08;1.27;;;;;;;35.60;23.19;100882.03;5069824;28;20050;-67
2021/05/26 07:42:42;;;;;;;5.15;1.27;;;;;;;35.71;23.14;100892.97;5070990;28;20071;-67
2021/05/26 07:45:09;;;;;;;5.70;1.40;;;;;;;35.84;22.91;100879.06;5070561;28;20118;-67
2021/05/26 07:47:36;;;;;;;4.45;1.60;;;;;;;35.92;22.82;100892.97;5070462;28;20051;-68
2021/05/26 07:50:04;;;;;;;5.47;1.50;;;;;;;35.90;22.63;100884.00;5071257;28;20028;-67
2021/05/26 07:52:31;;;;;;;3.50;1.38;;;;;;;36.06;22.22;100889.00;5071017;28;20055;-67
2021/05/26 07:54:58;;;;;;;4.10;1.30;;;;;;;36.19;22.18;100895.19;5070084;28;20048;-67
2021/05/26 07:57:27;;;;;;;3.60;1.40;;;;;;;36.13;22.17;100892.94;5070639;28;20040;-68
2021/05/26 07:59:54;;;;;;;4.65;1.40;;;;;;;36.22;22.29;100889.41;5070632;28;20569;-67
2021/05/26 08:02:21;;;;;;;6.18;1.70;;;;;;;36.10;22.76;100884.97;5070325;28;20080;-68
2021/05/26 08:04:48;;;;;;;5.85;1.80;;;;;;;36.02;22.61;100893.91;5070126;28;20110;-67
2021/05/26 08:07:15;;;;;;;5.82;1.40;;;;;;;36.01;22.85;100897.66;5070388;28;20036;-67
2021/05/26 08:09:43;;;;;;;3.72;1.50;;;;;;;35.97;22.80;100895.34;5069471;28;20098;-68
2021/05/26 08:12:12;;;;;;;6.13;1.33;;;;;;;36.00;22.78;100897.78;5070516;28;20055;-68
2021/05/26 08:14:40;;;;;;;4.13;1.60;;;;;;;36.09;22.99;100911.59;5070270;28;20029;-68
2021/05/26 08:17:07;;;;;;;7.38;1.50;;;;;;;36.03;23.00;100903.91;5069880;28;20044;-68
2021/05/26 08:19:34;;;;;;;6.10;1.55;;;;;;;36.05;23.33;100903.75;5069327;28;20123;-68
2021/05/26 08:22:02;;;;;;;3.13;1.40;;;;;;;36.08;23.00;100906.22;5070547;28;20127;-68
2021/05/26 08:24:28;;;;;;;4.30;1.50;;;;;;;36.01;22.89;100891.28;5069834;28;20052;-67
2021/05/26 08:26:56;;;;;;;3.40;1.30;;;;;;;35.96;23.34;100894.47;5069241;28;20163;-67
2021/05/26 08:29:23;;;;;;;6.57;1.60;;;;;;;36.01;23.08;100889.41;5070043;28;20040;-67
2021/05/26 08:31:53;;;;;;;3.10;1.38;;;;;;;35.92;23.04;100887.47;5068715;28;20094;-68
2021/05/26 08:34:20;;;;;;;6.03;1.85;;;;;;;36.06;23.03;100887.13;5069358;28;20500;-68
2021/05/26 08:36:48;;;;;;;5.93;1.30;;;;;;;36.25;22.67;100881.75;5068461;28;20051;-68
2021/05/26 08:39:15;;;;;;;4.47;1.92;;;;;;;36.45;22.45;100888.19;5065187;28;20561;-67
2021/05/26 08:41:44;;;;;;;6.38;1.50;;;;;;;36.53;22.46;100890.25;5051079;28;20404;-67
2021/05/26 08:44:13;;;;;;;5.95;1.83;;;;;;;36.61;21.96;100884.91;5050241;28;20037;-66
2021/05/26 08:46:41;;;;;;;6.00;1.60;;;;;;;36.79;22.00;100886.00;5049079;28;20047;-67
2021/05/26 08:49:10;;;;;;;5.90;1.83;;;;;;;36.87;22.13;100880.66;5055420;28;20040;-67
2021/05/26 08:51:37;;;;;;;5.43;1.63;;;;;;;36.96;22.02;100879.78;5059185;28;20673;-66
2021/05/26 08:54:05;;;;;;;2.65;1.20;;;;;;;37.04;21.80;100888.22;5049931;28;20492;-67
2021/05/26 08:56:32;;;;;;;4.93;1.70;;;;;;;37.14;21.33;100877.25;5049530;28;20112;-67
2021/05/26 08:58:59;;;;;;;6.18;1.48;;;;;;;37.29;21.39;100884.03;5046698;28;20678;-67
2021/05/26 09:01:26;;;;;;;7.47;1.38;;;;;;;37.26;20.82;100876.09;5048008;28;20508;-67
2021/05/26 09:03:54;;;;;;;4.00;1.15;;;;;;;37.33;20.85;100871.72;5048826;28;20116;-67
2021/05/26 09:06:22;;;;;;;9.60;1.73;;;;;;;37.42;20.62;100876.34;5050081;28;20040;-67
2021/05/26 09:08:50;;;;;;;5.18;1.65;;;;;;;37.50;20.97;100879.25;5057580;28;20507;-67
2021/05/26 09:11:29;;;;;;;4.00;1.20;;;;;;;37.58;21.02;100875.78;5069209;28;20123;-67
2021/05/26 09:13:56;;;;;;;4.68;1.30;;;;;;;37.65;20.79;100881.59;5068606;28;20066;-67
2021/05/26 09:16:33;;;;;;;4.40;1.40;;;;;;;37.73;20.76;100874.31;5067986;28;20141;-67
2021/05/26 09:19:02;;;;;;;7.10;1.55;;;;;;;37.60;20.52;100886.69;5068532;28;20519;-67
2021/05/26 09:21:41;;;;;;;5.22;1.42;;;;;;;37.64;20.67;100874.31;5068975;28;20037;-67
2021/05/26 09:24:28;;;;;;;3.58;1.30;;;;;;;37.61;20.80;100874.63;5067911;28;20124;-67
2021/05/26 09:26:57;;;;;;;8.60;1.67;;;;;;;37.59;20.79;100877.53;5064937;28;20134;-67
2021/05/26 09:29:25;;;;;;;10.45;1.63;;;;;;;37.73;20.60;100874.31;5067208;28;20082;-67
2021/05/26 09:31:55;;;;;;;10.15;2.17;;;;;;;37.75;20.69;100882.41;5068510;28;20033;-67
2021/05/26 09:34:36;;;;;;;7.38;1.50;;;;;;;37.72;20.50;100889.13;5068172;28;20544;-67
2021/05/26 09:37:05;;;;;;;8.52;1.63;;;;;;;37.89;20.42;100881.97;5069092;28;20052;-67
2021/05/26 09:39:57;;;;;;;5.32;1.27;;;;;;;38.09;20.20;100886.44;5053278;28;20424;-66
2021/05/26 09:42:34;;;;;;;5.20;1.50;;;;;;;38.14;20.28;100895.13;5053521;28;20055;-67
2021/05/26 09:45:12;;;;;;;12.00;1.30;;;;;;;38.18;20.11;100896.56;5057825;28;20071;-68
2021/05/26 09:47:41;;;;;;;6.53;2.05;;;;;;;38.09;19.74;100882.78;5069765;28;20443;-67
2021/05/26 09:50:28;;;;;;;7.10;1.58;;;;;;;38.16;19.72;100887.56;5052333;28;20041;-67
2021/05/26 09:53:09;;;;;;;3.40;1.60;;;;;;;38.11;20.10;100891.81;5053200;28;20132;-67
2021/05/26 09:55:38;;;;;;;7.75;1.70;;;;;;;38.00;19.98;100881.81;5052220;28;20052;-67
2021/05/26 09:58:06;;;;;;;7.70;1.60;;;;;;;37.84;20.39;100890.69;5061696;28;20131;-67
2021/05/26 10:00:35;;;;;;;5.13;1.63;;;;;;;37.58;21.10;100889.56;5063996;28;20036;-66
2021/05/26 10:03:02;;;;;;;5.28;1.40;;;;;;;37.24;21.37;100886.38;5068789;28;20041;-66
2021/05/26 10:05:30;;;;;;;6.38;1.50;;;;;;;36.50;22.27;100890.50;5055970;28;20042;-67
2021/05/26 10:07:59;;;;;;;4.30;1.73;;;;;;;36.46;22.53;100886.31;5065659;28;20063;-67
2021/05/26 10:10:29;;;;;;;4.68;1.38;;;;;;;36.23;22.47;100892.03;5066486;28;20040;-66
2021/05/26 10:12:58;;;;;;;3.05;1.50;;;;;;;36.06;23.25;100889.88;5071896;28;20139;-66
2021/05/26 10:15:27;;;;;;;4.28;2.10;;;;;;;35.64;23.64;100901.88;5061652;28;20048;-66
2021/05/26 10:17:55;;;;;;;5.47;1.50;;;;;;;35.20;24.42;100895.56;5054115;28;20542;-66
2021/05/26 10:20:24;;;;;;;8.15;2.17;;;;;;;34.95;25.61;100901.38;5049890;28;20117;-66
2021/05/26 10:22:53;;;;;;;5.57;2.03;;;;;;;34.65;25.72;100894.72;5050748;28;20040;-66
2021/05/26 10:25:21;;;;;;;3.75;1.50;;;;;;;34.66;25.65;100893.69;5052371;28;20033;-66
2021/05/26 10:27:51;;;;;;;4.70;1.80;;;;;;;34.97;25.54;100894.78;5065428;28;20039;-66
2021/05/26 10:30:20;;;;;;;5.63;2.05;;;;;;;35.25;25.36;100892.47;5071551;28;20432;-66
2021/05/26 10:32:55;;;;;;;8.98;2.47;;;;;;;35.35;25.50;100886.03;5058333;28;20052;-66
2021/05/26 10:35:24;;;;;;;6.50;1.77;;;;;;;35.26;25.73;100884.06;5072252;28;20385;-66
2021/05/26 10:38:04;;;;;;;5.47;2.45;;;;;;;35.14;25.68;100875.00;5066092;28;20039;-66
2021/05/26 10:40:49;;;;;;;7.03;2.05;;;;;;;34.72;26.55;100867.66;5071747;28;20442;-66
2021/05/26 10:43:36;;;;;;;7.35;2.42;;;;;;;34.67;26.46;100873.47;5071111;28;20424;-66
2021/05/26 10:46:06;;;;;;;9.15;2.55;;;;;;;34.79;26.10;100875.22;5071353;28;20044;-66
2021/05/26 10:49:09;;;;;;;3.90;2.20;;;;;;;34.67;27.54;100880.84;5078368;28;20288;-66
2021/05/26 10:52:09;;;;;;;5.53;2.20;;;;;;;34.57;27.77;100875.25;5069830;28;20047;-66
2021/05/26 10:55:04;;;;;;;6.40;2.55;;;;;;;34.32;28.08;100870.94;5070735;28;20127;-66
2021/05/26 10:57:52;;;;;;;4.70;2.35;;;;;;;34.12;28.32;100866.16;5071726;28;20400;-66
2021/05/26 11:00:39;;;;;;;4.35;2.30;;;;;;;34.40;28.08;100879.38;5064526;28;20043;-66
2021/05/26 11:03:34;;;;;;;8.48;2.03;;;;;;;35.05;27.34;100874.91;5070718;28;20565;-66
2021/05/26 11:06:03;;;;;;;6.30;1.83;;;;;;;35.56;26.13;100867.72;5071899;28;20041;-66
2021/05/26 11:08:43;;;;;;;10.23;2.80;;;;;;;35.86;26.10;100869.66;5071099;28;20037;-66
2021/05/26 11:11:41;;;;;;;5.35;2.08;;;;;;;36.37;25.33;100866.00;5057110;28;20044;-66
2021/05/26 11:14:28;;;;;;;4.63;1.80;;;;;;;36.70;24.78;100868.44;5053666;28;20131;-66
2021/05/26 11:17:21;;;;;;;7.22;2.20;;;;;;;36.82;24.54;100871.97;5070541;28;22872;-67
2021/05/26 11:19:49;;;;;;;3.33;1.77;;;;;;;36.71;24.42;100864.69;5054988;28;20040;-66
2021/05/26 11:22:18;;;;;;;5.88;2.10;;;;;;;36.53;24.61;100865.47;5051573;28;20049;-67
2021/05/26 11:24:49;;;;;;;6.18;2.00;;;;;;;36.80;24.52;100862.97;5059851;28;20138;-66
2021/05/26 11:27:18;;;;;;;6.50;1.90;;;;;;;36.88;24.00;100867.78;5054986;28;20036;-66
2021/05/26 11:29:49;;;;;;;4.43;1.70;;;;;;;36.95;23.94;100855.19;5065958;28;20057;-67
2021/05/26 11:32:18;;;;;;;5.82;2.08;;;;;;;37.05;23.37;100862.41;5051083;28;20442;-67
2021/05/26 11:34:48;;;;;;;5.53;1.95;;;;;;;37.27;23.09;100855.78;5068347;28;20039;-66